createdAt,value
2023-03-01T00:01:40.097Z,100.00
2023-03-01T00:04:06.790Z,100.00
2023-03-01T00:06:33.805Z,100.00
2023-03-01T00:09:00.666Z,100.00
2023-03-01T00:11:29.653Z,100.00
2023-03-01T00:14:01.977Z,100.00
2023-03-01T00:16:32.815Z,100.00
2023-03-01T00:21:38.810Z,100.00
2023-03-01T00:24:05.788Z,100.00
2023-03-01T00:26:33.095Z,100.00
2023-03-01T00:29:00.741Z,100.00
2023-03-01T00:31:30.405Z,100.00
2023-03-01T00:34:06.777Z,100.00
2023-03-01T00:36:36.880Z,100.00
2023-03-01T00:39:05.637Z,100.00
2023-03-01T00:41:32.370Z,100.00
2023-03-01T00:43:59.122Z,100.00
2023-03-01T00:46:27.784Z,100.00
2023-03-01T00:48:55.102Z,100.00
2023-03-01T00:51:24.591Z,100.00
2023-03-01T00:53:53.446Z,100.00
2023-03-01T01:00:12.482Z,100.00
2023-03-01T01:02:39.221Z,100.00
2023-03-01T01:05:06.277Z,100.00
2023-03-01T01:07:33.036Z,100.00
2023-03-01T01:09:59.788Z,100.00
2023-03-01T01:12:26.458Z,100.00
2023-03-01T01:14:53.183Z,100.00
2023-03-01T01:17:19.814Z,100.00
2023-03-01T01:19:46.441Z,100.00
2023-03-01T01:22:13.101Z,100.00
2023-03-01T01:29:54.671Z,100.00
2023-03-01T01:32:21.318Z,100.00
2023-03-01T01:34:48.105Z,100.00
2023-03-01T01:37:14.841Z,100.00
2023-03-01T01:39:41.454Z,100.00
2023-03-01T01:42:17.546Z,100.00
2023-03-01T01:44:47.795Z,100.00
2023-03-01T01:47:21.604Z,100.00
2023-03-01T01:50:03.423Z,100.00
2023-03-01T01:52:37.003Z,100.00
2023-03-01T01:55:07.394Z,100.00
2023-03-01T01:57:38.267Z,100.00
2023-03-01T02:00:13.170Z,100.00
2023-03-01T02:02:42.307Z,100.00
2023-03-01T02:05:30.510Z,100.00
2023-03-01T02:07:59.391Z,100.00
2023-03-01T02:10:27.979Z,100.00
2023-03-01T02:12:57.183Z,100.00
2023-03-01T02:15:25.210Z,100.00
2023-03-01T02:17:52.147Z,100.00
2023-03-01T02:20:31.617Z,100.00
2023-03-01T02:22:58.314Z,100.00
2023-03-01T02:25:39.433Z,100.00
2023-03-01T02:28:14.979Z,100.00
2023-03-01T02:31:10.155Z,100.00
2023-03-01T02:33:39.844Z,100.00
2023-03-01T02:36:12.551Z,100.00
2023-03-01T02:38:39.252Z,100.00
2023-03-01T02:41:08.134Z,100.00
2023-03-01T02:43:35.909Z,100.00
2023-03-01T02:46:14.313Z,100.00
2023-03-01T02:48:53.645Z,100.00
2023-03-01T02:51:40.745Z,100.00
2023-03-01T02:54:28.822Z,100.00
2023-03-01T02:56:57.118Z,100.00
2023-03-01T02:59:28.146Z,100.00
2023-03-01T03:01:54.838Z,100.00
2023-03-01T03:04:22.155Z,100.00
2023-03-01T03:06:51.744Z,100.00
2023-03-01T03:11:57.940Z,100.00
2023-03-01T03:14:24.656Z,100.00
2023-03-01T03:16:51.775Z,100.00
2023-03-01T03:19:20.816Z,100.00
2023-03-01T03:21:47.655Z,100.00
2023-03-01T03:24:14.344Z,100.00
2023-03-01T03:26:41.172Z,100.00
2023-03-01T03:29:07.886Z,100.00
2023-03-01T03:31:34.924Z,100.00
2023-03-01T03:34:01.612Z,100.00
2023-03-01T03:36:28.366Z,100.00
2023-03-01T03:38:55.116Z,100.00
2023-03-01T03:41:21.981Z,100.00
2023-03-01T03:43:50.074Z,100.00
2023-03-01T03:46:18.098Z,100.00
2023-03-01T03:48:46.628Z,100.00
2023-03-01T03:51:15.909Z,100.00
2023-03-01T03:53:43.381Z,100.00
2023-03-01T03:56:10.491Z,100.00
2023-03-01T03:58:37.628Z,100.00
2023-03-01T04:01:05.083Z,100.00
2023-03-01T04:03:33.254Z,100.00
2023-03-01T04:06:01.690Z,100.00
2023-03-01T04:08:29.403Z,100.00
2023-03-01T04:11:21.598Z,100.00
2023-03-01T04:13:48.463Z,100.00
2023-03-01T04:16:15.125Z,100.00
2023-03-01T04:18:41.866Z,100.00
2023-03-01T04:21:08.585Z,100.00
2023-03-01T04:23:36.202Z,100.00
2023-03-01T04:26:03.014Z,100.00
2023-03-01T04:28:34.871Z,100.00
2023-03-01T04:31:14.695Z,100.00
2023-03-01T04:33:46.043Z,100.00
2023-03-01T04:36:14.710Z,100.00
2023-03-01T04:38:42.535Z,100.00
2023-03-01T04:41:11.903Z,100.00
2023-03-01T04:43:39.225Z,100.00
2023-03-01T04:46:10.026Z,100.00
2023-03-01T04:48:37.813Z,100.00
2023-03-01T04:51:05.086Z,100.00
2023-03-01T04:53:31.720Z,100.00
2023-03-01T04:55:58.470Z,100.00
2023-03-01T04:58:26.135Z,100.00
2023-03-01T05:00:54.207Z,100.00
2023-03-01T05:03:22.296Z,100.00
2023-03-01T05:08:30.618Z,100.00
2023-03-01T05:10:57.349Z,100.00
2023-03-01T05:13:24.235Z,100.00
2023-03-01T05:16:02.441Z,100.00
2023-03-01T05:18:31.490Z,100.00
2023-03-01T05:21:05.099Z,100.00
2023-03-01T05:23:33.054Z,100.00
2023-03-01T05:26:06.216Z,100.00
2023-03-01T05:28:34.390Z,100.00
2023-03-01T05:31:01.400Z,100.00
2023-03-01T05:33:42.379Z,100.00
2023-03-01T05:36:10.764Z,100.00
2023-03-01T05:38:37.854Z,100.00
2023-03-01T05:41:04.656Z,100.00
2023-03-01T05:43:35.047Z,100.00
2023-03-01T05:46:01.772Z,100.00
2023-03-01T05:48:28.434Z,100.00
2023-03-01T05:50:55.025Z,100.00
2023-03-01T05:53:22.264Z,100.00
2023-03-01T05:55:50.775Z,100.00
2023-03-01T05:58:20.266Z,100.00
2023-03-01T06:00:49.182Z,100.00
2023-03-01T06:03:18.329Z,100.00
2023-03-01T06:05:45.557Z,100.00
2023-03-01T06:10:51.248Z,100.00
2023-03-01T06:13:17.882Z,100.00
2023-03-01T06:15:44.514Z,100.00
2023-03-01T06:18:11.225Z,100.00
2023-03-01T06:20:37.868Z,100.00
2023-03-01T06:23:04.486Z,100.00
2023-03-01T06:25:31.167Z,100.00
2023-03-01T06:27:57.993Z,100.00
2023-03-01T06:30:26.597Z,100.00
2023-03-01T06:32:53.605Z,100.00
2023-03-01T06:35:20.566Z,100.00
2023-03-01T06:37:48.929Z,100.00
2023-03-01T06:40:16.695Z,100.00
2023-03-01T06:42:49.511Z,100.00
2023-03-01T06:45:16.923Z,100.00
2023-03-01T06:47:43.706Z,100.00
2023-03-01T06:50:10.994Z,100.00
2023-03-01T06:52:37.835Z,100.00
2023-03-01T06:55:05.576Z,100.00
2023-03-01T06:57:32.543Z,100.00
2023-03-01T06:59:59.206Z,100.00
2023-03-01T07:02:25.908Z,100.00
2023-03-01T07:04:53.405Z,100.00
2023-03-01T07:07:20.101Z,100.00
2023-03-01T07:09:47.625Z,100.00
2023-03-01T07:12:14.338Z,100.00
2023-03-01T07:14:41.008Z,100.00
2023-03-01T07:17:08.270Z,100.00
2023-03-01T07:19:34.965Z,100.00
2023-03-01T07:22:01.728Z,100.00
2023-03-01T07:24:28.535Z,100.00
2023-03-01T07:26:55.381Z,100.00
2023-03-01T07:29:22.056Z,100.00
2023-03-01T07:31:48.670Z,100.00
2023-03-01T07:34:15.350Z,100.00
2023-03-01T07:36:44.187Z,100.00
2023-03-01T07:39:11.803Z,100.00
2023-03-01T07:41:39.168Z,100.00
2023-03-01T07:44:05.898Z,100.00
2023-03-01T07:46:33.432Z,100.00
2023-03-01T07:51:40.085Z,100.00
2023-03-01T07:54:06.764Z,100.00
2023-03-01T07:56:33.816Z,100.00
2023-03-01T07:59:00.948Z,100.00
2023-03-01T08:01:27.674Z,100.00
2023-03-01T08:03:54.397Z,100.00
2023-03-01T08:06:21.021Z,100.00
2023-03-01T08:08:47.770Z,100.00
2023-03-01T08:11:15.790Z,100.00
2023-03-01T08:13:44.398Z,100.00
2023-03-01T08:16:14.107Z,100.00
2023-03-01T08:18:41.496Z,100.00
2023-03-01T08:21:13.396Z,100.00
2023-03-01T08:23:40.981Z,100.00
2023-03-01T08:26:11.456Z,100.00
2023-03-01T08:28:38.130Z,100.00
2023-03-01T08:31:16.608Z,100.00
2023-03-01T08:33:43.512Z,100.00
2023-03-01T08:36:10.485Z,100.00
2023-03-01T08:38:37.227Z,100.00
2023-03-01T08:41:04.838Z,100.00
2023-03-01T08:43:31.933Z,100.00
2023-03-01T08:45:58.746Z,100.00
2023-03-01T08:48:28.714Z,100.00
2023-03-01T08:50:55.899Z,100.00
2023-03-01T08:53:22.667Z,100.00
2023-03-01T08:55:50.729Z,98.98
2023-03-01T08:58:17.483Z,98.70
2023-03-01T09:00:44.094Z,97.48
2023-03-01T09:05:51.332Z,96.05
2023-03-01T09:08:19.380Z,94.00
2023-03-01T09:10:46.233Z,94.61
2023-03-01T09:13:13.049Z,94.07
2023-03-01T09:17:15.285Z,93.88
2023-03-01T09:19:41.988Z,93.24
2023-03-01T09:22:08.605Z,93.74
2023-03-01T09:24:35.313Z,90.36
2023-03-01T09:27:02.487Z,90.60
2023-03-01T09:29:29.268Z,90.80
2023-03-01T09:31:56.369Z,88.61
2023-03-01T09:34:24.514Z,88.49
2023-03-01T09:36:52.297Z,88.00
2023-03-01T09:39:19.202Z,87.58
2023-03-01T09:41:50.633Z,88.19
2023-03-01T09:44:28.959Z,86.44
2023-03-01T09:46:58.156Z,86.55
2023-03-01T09:49:32.797Z,85.75
2023-03-01T09:52:34.893Z,84.30
2023-03-01T09:58:00.359Z,82.52
2023-03-01T10:02:28.972Z,84.15
2023-03-01T10:05:06.544Z,85.02
2023-03-01T10:07:45.409Z,82.71
2023-03-01T10:10:26.435Z,81.00
2023-03-01T10:12:54.602Z,80.60
2023-03-01T10:15:36.393Z,82.33
2023-03-01T10:18:11.638Z,84.51
2023-03-01T10:20:49.802Z,86.25
2023-03-01T10:23:16.678Z,84.97
2023-03-01T10:26:17.280Z,85.57
2023-03-01T10:29:12.082Z,83.97
2023-03-01T10:34:31.665Z,85.27
2023-03-01T10:37:14.167Z,86.85
2023-03-01T10:40:11.420Z,85.98
2023-03-01T10:42:46.940Z,86.38
2023-03-01T10:45:16.717Z,84.13
2023-03-01T10:47:43.501Z,85.06
2023-03-01T10:50:23.936Z,85.08
2023-03-01T10:53:18.287Z,85.86
2023-03-01T10:55:45.067Z,86.68
2023-03-01T10:58:20.762Z,86.52
2023-03-01T11:00:48.995Z,86.05
2023-03-01T11:03:21.916Z,86.70
2023-03-01T11:05:57.044Z,87.06
2023-03-01T11:08:45.022Z,86.75
2023-03-01T11:11:32.962Z,87.87
2023-03-01T11:14:23.660Z,88.08
2023-03-01T11:19:02.978Z,89.64
2023-03-01T11:21:34.468Z,90.09
2023-03-01T11:24:02.648Z,88.17
2023-03-01T11:26:32.498Z,88.21
2023-03-01T11:29:05.799Z,88.23
2023-03-01T11:31:34.740Z,87.95
2023-03-01T11:34:14.854Z,88.22
2023-03-01T11:36:55.804Z,88.61
2023-03-01T11:39:25.506Z,87.99
2023-03-01T11:42:18.037Z,86.73
2023-03-01T11:47:31.480Z,88.46
2023-03-01T11:50:10.314Z,89.22
2023-03-01T11:52:39.822Z,88.96
2023-03-01T11:55:43.867Z,88.59
2023-03-01T11:58:38.133Z,88.97
2023-03-01T12:01:10.572Z,87.13
2023-03-01T12:04:14.781Z,88.73
2023-03-01T12:07:25.605Z,87.96
2023-03-01T12:10:35.529Z,88.79
2023-03-01T12:13:28.529Z,89.37
2023-03-01T12:16:07.739Z,87.13
2023-03-01T12:18:43.334Z,86.19
2023-03-01T12:21:25.311Z,87.02
2023-03-01T12:24:17.968Z,86.40
2023-03-01T12:27:23.149Z,87.77
2023-03-01T12:30:15.666Z,86.47
2023-03-01T12:33:00.677Z,86.09
2023-03-01T12:35:48.494Z,82.99
2023-03-01T12:38:38.912Z,82.78
2023-03-01T12:41:20.543Z,82.89
2023-03-01T12:44:02.014Z,82.77
2023-03-01T12:47:03.755Z,80.40
2023-03-01T12:49:37.315Z,80.20
2023-03-01T12:52:12.162Z,80.58
2023-03-01T12:54:38.709Z,80.65
2023-03-01T12:57:38.200Z,80.65
2023-03-01T13:03:26.680Z,80.14
2023-03-01T13:06:12.744Z,79.18
2023-03-01T13:08:39.324Z,78.63
2023-03-01T13:11:22.127Z,76.44
2023-03-01T13:13:52.764Z,75.09
2023-03-01T13:16:37.634Z,76.38
2023-03-01T13:19:11.060Z,77.78
2023-03-01T13:21:37.701Z,78.76
2023-03-01T13:24:04.661Z,78.50
2023-03-01T13:26:31.806Z,79.06
2023-03-01T13:29:01.097Z,77.15
2023-03-01T13:31:27.749Z,78.54
2023-03-01T13:33:56.024Z,78.41
2023-03-01T13:36:28.814Z,77.69
2023-03-01T13:38:56.395Z,78.17
2023-03-01T13:41:45.013Z,77.84
2023-03-01T13:44:23.804Z,78.99
2023-03-01T13:46:52.874Z,79.71
2023-03-01T13:49:22.701Z,79.83
2023-03-01T13:51:51.003Z,79.48
2023-03-01T13:54:27.547Z,79.94
2023-03-01T13:56:55.505Z,79.61
2023-03-01T13:59:23.375Z,79.79
2023-03-01T14:01:57.813Z,79.73
2023-03-01T14:04:26.857Z,79.57
2023-03-01T14:07:31.020Z,79.92
2023-03-01T14:10:01.209Z,79.99
2023-03-01T14:12:42.402Z,79.83
2023-03-01T14:15:30.259Z,80.04
2023-03-01T14:18:18.704Z,79.76
2023-03-01T14:20:52.447Z,79.97
2023-03-01T14:23:22.053Z,80.43
2023-03-01T14:26:06.588Z,80.30
2023-03-01T14:28:38.401Z,79.98
2023-03-01T14:31:53.603Z,80.67
2023-03-01T14:34:23.301Z,80.85
2023-03-01T14:36:50.488Z,80.77
2023-03-01T14:39:19.885Z,80.73
2023-03-01T14:41:46.899Z,79.98
2023-03-01T14:44:19.681Z,80.77
2023-03-01T14:46:47.046Z,81.05
2023-03-01T14:49:16.637Z,80.54
2023-03-01T14:51:51.088Z,80.28
2023-03-01T14:54:27.813Z,80.56
2023-03-01T14:56:58.844Z,80.67
2023-03-01T14:59:26.190Z,82.21
2023-03-01T15:01:56.506Z,80.98
2023-03-01T15:04:25.809Z,80.55
2023-03-01T15:06:53.813Z,84.02
2023-03-01T15:09:21.161Z,84.90
2023-03-01T15:11:47.860Z,85.75
2023-03-01T15:14:44.134Z,86.23
2023-03-01T15:17:27.474Z,86.02
2023-03-01T15:19:54.623Z,86.45
2023-03-01T15:22:23.630Z,87.90
2023-03-01T15:24:50.869Z,88.71
2023-03-01T15:27:23.617Z,88.80
2023-03-01T15:30:00.898Z,89.19
2023-03-01T15:32:34.637Z,89.14
2023-03-01T15:35:22.784Z,88.51
2023-03-01T15:37:50.755Z,89.86
2023-03-01T15:40:32.681Z,88.21
2023-03-01T15:43:00.499Z,87.82
2023-03-01T15:45:29.747Z,88.50
2023-03-01T15:47:58.967Z,88.80
2023-03-01T15:50:29.808Z,90.14
2023-03-01T15:52:59.253Z,91.15
2023-03-01T15:55:30.795Z,93.65
2023-03-01T15:58:07.728Z,96.63
2023-03-01T16:00:34.614Z,98.10
2023-03-01T16:03:01.318Z,97.96
2023-03-01T16:05:37.851Z,98.02
2023-03-01T16:08:06.765Z,98.18
2023-03-01T16:12:43.491Z,97.35
2023-03-01T16:17:54.587Z,97.70
2023-03-01T16:20:28.038Z,97.78
2023-03-01T16:22:56.399Z,98.51
2023-03-01T16:25:23.043Z,98.70
2023-03-01T16:27:51.874Z,98.06
2023-03-01T16:30:22.170Z,98.88
2023-03-01T16:32:50.305Z,100.00
2023-03-01T16:35:20.234Z,100.00
2023-03-01T16:37:47.381Z,100.00
2023-03-01T16:40:26.986Z,100.00
2023-03-01T16:42:56.265Z,100.00
2023-03-01T16:45:24.639Z,100.00
2023-03-01T16:47:55.455Z,100.00
2023-03-01T16:50:22.723Z,100.00
2023-03-01T16:52:49.483Z,100.00
2023-03-01T16:55:16.348Z,100.00
2023-03-01T16:57:43.043Z,100.00
2023-03-01T17:00:13.878Z,100.00
2023-03-01T17:05:23.418Z,100.00
2023-03-01T17:07:50.203Z,100.00
2023-03-01T17:10:16.949Z,100.00
2023-03-01T17:12:43.578Z,100.00
2023-03-01T17:15:10.754Z,100.00
2023-03-01T17:17:37.430Z,100.00
2023-03-01T17:20:05.017Z,100.00
2023-03-01T17:22:31.703Z,100.00
2023-03-01T17:24:58.377Z,100.00
2023-03-01T17:27:25.592Z,100.00
2023-03-01T17:29:52.422Z,100.00
2023-03-01T17:32:19.295Z,100.00
2023-03-01T17:34:46.568Z,100.00
2023-03-01T17:37:13.252Z,100.00
2023-03-01T17:39:39.894Z,100.00
2023-03-01T17:42:07.240Z,100.00
2023-03-01T17:44:34.834Z,100.00
2023-03-01T17:47:03.264Z,100.00
2023-03-01T17:49:30.527Z,100.00
2023-03-01T17:51:57.713Z,100.00
2023-03-01T17:56:17.033Z,100.00
2023-03-01T17:58:43.738Z,100.00
2023-03-01T18:01:19.004Z,100.00
2023-03-01T18:03:47.580Z,100.00
2023-03-01T18:08:01.849Z,100.00
2023-03-01T18:10:28.563Z,100.00
2023-03-01T18:12:55.268Z,100.00
2023-03-01T18:15:21.963Z,100.00
2023-03-01T18:17:48.761Z,100.00
2023-03-01T18:22:55.061Z,100.00
2023-03-01T18:25:22.292Z,100.00
2023-03-01T18:27:49.189Z,100.00
2023-03-01T18:30:16.198Z,100.00
2023-03-01T18:32:45.056Z,100.00
2023-03-01T18:35:11.793Z,100.00
2023-03-01T18:37:38.637Z,100.00
2023-03-01T18:40:05.994Z,100.00
2023-03-01T18:42:32.662Z,100.00
2023-03-01T18:44:59.471Z,100.00
2023-03-01T18:47:26.145Z,100.00
2023-03-01T18:49:53.049Z,100.00
2023-03-01T18:52:19.715Z,100.00
2023-03-01T18:54:46.429Z,100.00
2023-03-01T18:57:13.061Z,100.00
2023-03-01T18:59:39.694Z,100.00
2023-03-01T19:02:06.392Z,100.00
2023-03-01T19:04:33.110Z,100.00
2023-03-01T19:07:02.303Z,100.00
2023-03-01T19:09:29.188Z,100.00
2023-03-01T19:11:58.930Z,100.00
2023-03-01T19:14:25.712Z,100.00
2023-03-01T19:16:52.359Z,100.00
2023-03-01T19:19:19.164Z,100.00
2023-03-01T19:21:56.041Z,100.00
2023-03-01T19:24:31.380Z,100.00
2023-03-01T19:26:58.049Z,100.00
2023-03-01T19:29:24.783Z,100.00
2023-03-01T19:31:51.545Z,100.00
2023-03-01T19:34:18.533Z,100.00
2023-03-01T19:36:45.929Z,100.00
2023-03-01T19:39:14.038Z,100.00
2023-03-01T19:41:41.758Z,100.00
2023-03-01T19:44:08.893Z,100.00
2023-03-01T19:46:36.141Z,100.00
2023-03-01T19:49:03.679Z,100.00
2023-03-01T19:51:33.386Z,100.00
2023-03-01T19:54:00.091Z,100.00
2023-03-01T19:56:26.890Z,100.00
2023-03-01T19:59:00.375Z,100.00
2023-03-01T20:01:32.986Z,100.00
2023-03-01T20:04:00.592Z,100.00
2023-03-01T20:06:29.847Z,100.00
2023-03-01T20:08:56.754Z,100.00
2023-03-01T20:11:23.529Z,100.00
2023-03-01T20:13:50.233Z,100.00
2023-03-01T20:16:18.685Z,100.00
2023-03-01T20:18:45.485Z,100.00
2023-03-01T20:21:23.460Z,100.00
2023-03-01T20:23:50.961Z,100.00
2023-03-01T20:26:19.776Z,100.00
2023-03-01T20:28:48.520Z,100.00
2023-03-01T20:31:17.349Z,100.00
2023-03-01T20:33:44.380Z,100.00
2023-03-01T20:38:53.191Z,100.00
2023-03-01T20:41:20.424Z,100.00
2023-03-01T20:43:56.449Z,100.00
2023-03-01T20:46:25.738Z,100.00
2023-03-01T20:48:53.844Z,100.00
2023-03-01T20:51:20.783Z,100.00
2023-03-01T20:53:47.523Z,100.00
2023-03-01T20:56:15.917Z,100.00
2023-03-01T20:58:43.275Z,100.00
2023-03-01T21:01:12.020Z,100.00
2023-03-01T21:03:38.789Z,100.00
2023-03-01T21:06:06.386Z,100.00
2023-03-01T21:08:34.330Z,100.00
2023-03-01T21:11:02.387Z,100.00
2023-03-01T21:13:30.216Z,100.00
2023-03-01T21:16:00.137Z,100.00
2023-03-01T21:18:30.102Z,100.00
2023-03-01T21:21:08.904Z,100.00
2023-03-01T21:23:37.783Z,100.00
2023-03-01T21:26:11.600Z,100.00
2023-03-01T21:28:39.421Z,100.00
2023-03-01T21:31:22.242Z,100.00
2023-03-01T21:33:51.525Z,100.00
2023-03-01T21:36:19.630Z,100.00
2023-03-01T21:38:48.215Z,100.00
2023-03-01T21:41:23.551Z,100.00
2023-03-01T21:43:52.218Z,100.00
2023-03-01T21:49:02.644Z,100.00
2023-03-01T21:51:30.580Z,100.00
2023-03-01T21:53:58.964Z,100.00
2023-03-01T21:56:27.767Z,100.00
2023-03-01T21:58:55.117Z,100.00
2023-03-01T22:01:25.504Z,100.00
2023-03-01T22:03:52.198Z,100.00
2023-03-01T22:06:31.666Z,100.00
2023-03-01T22:09:01.276Z,100.00
2023-03-01T22:11:28.585Z,100.00
2023-03-01T22:13:56.918Z,100.00
2023-03-01T22:16:29.162Z,100.00
2023-03-01T22:18:57.055Z,100.00
2023-03-01T22:21:24.965Z,100.00
2023-03-01T22:23:53.288Z,100.00
2023-03-01T22:26:33.744Z,100.00
2023-03-01T22:29:02.486Z,100.00
2023-03-01T22:31:29.673Z,100.00
2023-03-01T22:33:58.215Z,100.00
2023-03-01T22:36:25.005Z,100.00
2023-03-01T22:38:58.608Z,100.00
2023-03-01T22:41:28.614Z,100.00
2023-03-01T22:43:55.382Z,100.00
2023-03-01T22:46:23.280Z,100.00
2023-03-01T22:48:50.501Z,100.00
2023-03-01T22:51:18.627Z,100.00
2023-03-01T22:53:45.376Z,100.00
2023-03-01T22:56:14.206Z,100.00
2023-03-01T22:58:40.907Z,100.00
2023-03-01T23:01:12.886Z,100.00
2023-03-01T23:03:39.685Z,100.00
2023-03-01T23:06:06.926Z,100.00
2023-03-01T23:08:33.687Z,100.00
2023-03-01T23:11:00.344Z,100.00
2023-03-01T23:13:27.138Z,100.00
2023-03-01T23:15:57.863Z,100.00
2023-03-01T23:18:24.761Z,100.00
2023-03-01T23:20:51.485Z,100.00
2023-03-01T23:23:18.190Z,100.00
2023-03-01T23:25:58.002Z,100.00
2023-03-01T23:28:25.934Z,100.00
2023-03-01T23:31:02.813Z,100.00
2023-03-01T23:33:37.787Z,100.00
2023-03-01T23:36:15.610Z,100.00
2023-03-01T23:38:42.402Z,100.00
2023-03-01T23:41:13.485Z,100.00
2023-03-01T23:43:40.241Z,100.00
2023-03-01T23:46:06.907Z,100.00
2023-03-01T23:48:33.662Z,100.00
2023-03-01T23:51:07.059Z,100.00
2023-03-01T23:53:36.879Z,100.00
2023-03-01T23:56:04.098Z,100.00
2023-03-01T23:58:30.749Z,100.00
